sensor_id;sensor_type;location;lat;lon;timestamp;pressure;altitude;pressure_sealevel;temperature;humidity
73558;BME280;61829;53.286;10.434;2023-05-01T00:01:05;101818.16;;;4.58;80.67
73558;BME280;61829;53.286;10.434;2023-05-01T00:03:34;101809.53;;;4.55;79.72
73558;BME280;61829;53.286;10.434;2023-05-01T00:06:02;101803.59;;;4.51;80.66
73558;BME280;61829;53.286;10.434;2023-05-01T00:08:29;101798.50;;;4.48;79.51
73558;BME280;61829;53.286;10.434;2023-05-01T00:10:55;101807.47;;;4.47;80.48
73558;BME280;61829;53.286;10.434;2023-05-01T00:13:20;101797.19;;;4.42;79.99
73558;BME280;61829;53.286;10.434;2023-05-01T00:15:49;101797.41;;;4.39;80.42
73558;BME280;61829;53.286;10.434;2023-05-01T00:18:16;101797.66;;;4.36;80.27
73558;BME280;61829;53.286;10.434;2023-05-01T00:20:41;101791.59;;;4.34;80.26
73558;BME280;61829;53.286;10.434;2023-05-01T00:23:07;101780.31;;;4.31;79.30
73558;BME280;61829;53.286;10.434;2023-05-01T00:25:33;101786.75;;;4.28;80.20
73558;BME280;61829;53.286;10.434;2023-05-01T00:27:59;101787.81;;;4.25;78.75
73558;BME280;61829;53.286;10.434;2023-05-01T00:30:25;101785.41;;;4.22;80.93
73558;BME280;61829;53.286;10.434;2023-05-01T00:32:55;101784.75;;;4.19;81.11
73558;BME280;61829;53.286;10.434;2023-05-01T00:35:21;101785.88;;;4.16;82.21
73558;BME280;61829;53.286;10.434;2023-05-01T00:37:48;101781.88;;;4.11;83.67
73558;BME280;61829;53.286;10.434;2023-05-01T00:40:14;101781.13;;;4.09;83.78
73558;BME280;61829;53.286;10.434;2023-05-01T00:42:40;101773.38;;;4.05;83.56
73558;BME280;61829;53.286;10.434;2023-05-01T00:45:07;101776.28;;;4.02;83.97
73558;BME280;61829;53.286;10.434;2023-05-01T00:47:37;101767.53;;;4.00;83.56
73558;BME280;61829;53.286;10.434;2023-05-01T00:50:05;101764.13;;;3.98;82.70
73558;BME280;61829;53.286;10.434;2023-05-01T00:56:32;101766.69;;;3.89;83.03
73558;BME280;61829;53.286;10.434;2023-05-01T00:58:58;101762.66;;;3.83;83.12
73558;BME280;61829;53.286;10.434;2023-05-01T01:01:24;101761.09;;;3.80;83.25
73558;BME280;61829;53.286;10.434;2023-05-01T01:03:50;101770.28;;;3.76;83.00
73558;BME280;61829;53.286;10.434;2023-05-01T01:06:41;101762.50;;;3.73;82.82
73558;BME280;61829;53.286;10.434;2023-05-01T01:11:56;101751.47;;;3.67;82.40
73558;BME280;61829;53.286;10.434;2023-05-01T01:14:28;101760.56;;;3.64;83.22
73558;BME280;61829;53.286;10.434;2023-05-01T01:17:23;101751.81;;;3.62;82.01
73558;BME280;61829;53.286;10.434;2023-05-01T01:23:03;101753.13;;;3.56;82.90
73558;BME280;61829;53.286;10.434;2023-05-01T01:28:23;101741.25;;;3.49;83.21
73558;BME280;61829;53.286;10.434;2023-05-01T01:36:23;101743.41;;;3.44;82.23
73558;BME280;61829;53.286;10.434;2023-05-01T01:39:22;101738.22;;;3.43;82.86
73558;BME280;61829;53.286;10.434;2023-05-01T01:41:50;101740.88;;;3.43;82.37
73558;BME280;61829;53.286;10.434;2023-05-01T01:47:18;101734.69;;;3.42;82.31
73558;BME280;61829;53.286;10.434;2023-05-01T01:49:48;101732.16;;;3.41;82.30
73558;BME280;61829;53.286;10.434;2023-05-01T01:52:17;101728.63;;;3.40;82.13
73558;BME280;61829;53.286;10.434;2023-05-01T01:54:50;101728.63;;;3.40;82.97
73558;BME280;61829;53.286;10.434;2023-05-01T01:57:20;101726.91;;;3.39;82.61
73558;BME280;61829;53.286;10.434;2023-05-01T01:59:46;101731.41;;;3.38;82.80
73558;BME280;61829;53.286;10.434;2023-05-01T02:02:16;101722.56;;;3.38;83.17
73558;BME280;61829;53.286;10.434;2023-05-01T02:04:43;101716.63;;;3.34;82.92
73558;BME280;61829;53.286;10.434;2023-05-01T02:07:11;101708.88;;;3.31;82.67
73558;BME280;61829;53.286;10.434;2023-05-01T02:09:39;101721.31;;;3.31;83.03
73558;BME280;61829;53.286;10.434;2023-05-01T02:12:07;101717.81;;;3.30;83.01
73558;BME280;61829;53.286;10.434;2023-05-01T02:14:34;101714.41;;;3.28;83.57
73558;BME280;61829;53.286;10.434;2023-05-01T02:17:03;101712.84;;;3.26;83.31
73558;BME280;61829;53.286;10.434;2023-05-01T02:19:31;101709.44;;;3.24;83.62
73558;BME280;61829;53.286;10.434;2023-05-01T02:21:58;101701.47;;;3.24;83.45
73558;BME280;61829;53.286;10.434;2023-05-01T02:24:27;101699.88;;;3.21;82.86
73558;BME280;61829;53.286;10.434;2023-05-01T02:26:56;101696.22;;;3.22;82.92
73558;BME280;61829;53.286;10.434;2023-05-01T02:29:24;101698.91;;;3.22;83.70
73558;BME280;61829;53.286;10.434;2023-05-01T02:31:51;101693.69;;;3.21;83.87
73558;BME280;61829;53.286;10.434;2023-05-01T02:34:17;101695.06;;;3.26;83.47
73558;BME280;61829;53.286;10.434;2023-05-01T02:36:43;101695.75;;;3.28;83.60
73558;BME280;61829;53.286;10.434;2023-05-01T02:39:09;101690.09;;;3.33;83.50
73558;BME280;61829;53.286;10.434;2023-05-01T02:41:36;101679.94;;;3.38;83.37
73558;BME280;61829;53.286;10.434;2023-05-01T02:44:04;101681.63;;;3.39;83.50
73558;BME280;61829;53.286;10.434;2023-05-01T02:46:35;101673.78;;;3.37;83.08
73558;BME280;61829;53.286;10.434;2023-05-01T02:49:02;101674.00;;;3.34;83.29
73558;BME280;61829;53.286;10.434;2023-05-01T02:51:29;101663.47;;;3.33;83.12
73558;BME280;61829;53.286;10.434;2023-05-01T02:53:58;101662.47;;;3.34;83.53
73558;BME280;61829;53.286;10.434;2023-05-01T02:56:25;101662.38;;;3.35;83.39
73558;BME280;61829;53.286;10.434;2023-05-01T02:58:54;101657.88;;;3.36;83.61
73558;BME280;61829;53.286;10.434;2023-05-01T03:01:21;101656.94;;;3.37;83.76
73558;BME280;61829;53.286;10.434;2023-05-01T03:03:50;101655.22;;;3.36;83.50
73558;BME280;61829;53.286;10.434;2023-05-01T03:06:16;101650.88;;;3.35;83.62
73558;BME280;61829;53.286;10.434;2023-05-01T03:08:43;101654.50;;;3.34;83.67
73558;BME280;61829;53.286;10.434;2023-05-01T03:11:09;101645.88;;;3.30;83.80
73558;BME280;61829;53.286;10.434;2023-05-01T03:14:03;101646.03;;;3.29;83.58
73558;BME280;61829;53.286;10.434;2023-05-01T03:16:32;101640.94;;;3.26;84.46
73558;BME280;61829;53.286;10.434;2023-05-01T03:18:57;101641.28;;;3.21;87.11
73558;BME280;61829;53.286;10.434;2023-05-01T03:21:24;101640.66;;;3.18;87.78
73558;BME280;61829;53.286;10.434;2023-05-01T03:23:50;101634.59;;;3.15;89.89
73558;BME280;61829;53.286;10.434;2023-05-01T03:26:16;101638.25;;;3.14;90.06
73558;BME280;61829;53.286;10.434;2023-05-01T03:28:41;101642.09;;;3.10;89.94
73558;BME280;61829;53.286;10.434;2023-05-01T03:31:07;101626.25;;;3.09;91.07
73558;BME280;61829;53.286;10.434;2023-05-01T03:33:33;101624.91;;;3.03;90.38
73558;BME280;61829;53.286;10.434;2023-05-01T03:36:03;101631.41;;;2.99;89.96
73558;BME280;61829;53.286;10.434;2023-05-01T03:38:30;101630.66;;;2.97;89.20
73558;BME280;61829;53.286;10.434;2023-05-01T03:40:57;101621.97;;;2.95;89.77
73558;BME280;61829;53.286;10.434;2023-05-01T03:43:24;101622.44;;;2.89;90.13
73558;BME280;61829;53.286;10.434;2023-05-01T03:45:52;101622.63;;;2.86;90.44
73558;BME280;61829;53.286;10.434;2023-05-01T03:48:18;101623.75;;;2.83;90.24
73558;BME280;61829;53.286;10.434;2023-05-01T03:50:44;101618.66;;;2.80;90.17
73558;BME280;61829;53.286;10.434;2023-05-01T03:53:11;101619.50;;;2.81;90.51
73558;BME280;61829;53.286;10.434;2023-05-01T03:55:38;101618.66;;;2.80;90.46
73558;BME280;61829;53.286;10.434;2023-05-01T03:58:05;101617.66;;;2.81;90.31
73558;BME280;61829;53.286;10.434;2023-05-01T04:00:32;101619.25;;;2.84;90.55
73558;BME280;61829;53.286;10.434;2023-05-01T04:02:58;101611.28;;;2.84;90.45
73558;BME280;61829;53.286;10.434;2023-05-01T04:05:23;101609.22;;;2.87;90.34
73558;BME280;61829;53.286;10.434;2023-05-01T04:07:49;101606.47;;;2.89;89.99
73558;BME280;61829;53.286;10.434;2023-05-01T04:10:15;101604.50;;;2.91;89.75
73558;BME280;61829;53.286;10.434;2023-05-01T04:12:43;101608.88;;;2.92;88.63
73558;BME280;61829;53.286;10.434;2023-05-01T04:15:09;101605.25;;;2.93;87.93
73558;BME280;61829;53.286;10.434;2023-05-01T04:17:35;101596.28;;;2.94;88.31
73558;BME280;61829;53.286;10.434;2023-05-01T04:20:02;101597.75;;;2.98;88.35
73558;BME280;61829;53.286;10.434;2023-05-01T04:22:30;101591.88;;;3.06;88.51
73558;BME280;61829;53.286;10.434;2023-05-01T04:24:56;101597.31;;;3.15;88.16
73558;BME280;61829;53.286;10.434;2023-05-01T04:27:22;101585.03;;;3.37;87.42
73558;BME280;61829;53.286;10.434;2023-05-01T04:29:50;101590.13;;;3.74;86.43
73558;BME280;61829;53.286;10.434;2023-05-01T04:32:16;101578.78;;;4.15;84.59
73558;BME280;61829;53.286;10.434;2023-05-01T04:34:42;101586.91;;;4.57;82.81
73558;BME280;61829;53.286;10.434;2023-05-01T04:37:11;101575.94;;;4.92;81.82
73558;BME280;61829;53.286;10.434;2023-05-01T04:39:37;101581.94;;;5.27;80.42
73558;BME280;61829;53.286;10.434;2023-05-01T04:42:03;101576.19;;;5.62;78.64
73558;BME280;61829;53.286;10.434;2023-05-01T04:44:29;101572.16;;;5.98;76.56
73558;BME280;61829;53.286;10.434;2023-05-01T04:46:55;101564.03;;;6.39;75.13
73558;BME280;61829;53.286;10.434;2023-05-01T04:49:21;101568.69;;;6.75;74.01
73558;BME280;61829;53.286;10.434;2023-05-01T04:51:47;101567.13;;;7.12;72.25
73558;BME280;61829;53.286;10.434;2023-05-01T04:54:13;101555.72;;;7.47;70.50
73558;BME280;61829;53.286;10.434;2023-05-01T04:56:39;101555.84;;;7.83;69.46
73558;BME280;61829;53.286;10.434;2023-05-01T04:59:05;101560.59;;;8.17;68.56
73558;BME280;61829;53.286;10.434;2023-05-01T05:01:31;101561.44;;;8.45;66.70
73558;BME280;61829;53.286;10.434;2023-05-01T05:03:57;101560.13;;;8.67;65.96
73558;BME280;61829;53.286;10.434;2023-05-01T05:06:22;101554.09;;;8.91;65.37
73558;BME280;61829;53.286;10.434;2023-05-01T05:08:48;101557.19;;;9.22;63.49
73558;BME280;61829;53.286;10.434;2023-05-01T05:11:19;101558.34;;;9.46;63.26
73558;BME280;61829;53.286;10.434;2023-05-01T05:13:45;101563.19;;;9.76;61.90
73558;BME280;61829;53.286;10.434;2023-05-01T05:16:11;101559.59;;;10.02;60.67
73558;BME280;61829;53.286;10.434;2023-05-01T05:18:37;101565.94;;;10.35;60.13
73558;BME280;61829;53.286;10.434;2023-05-01T05:21:04;101563.47;;;10.74;58.40
73558;BME280;61829;53.286;10.434;2023-05-01T05:23:30;101559.75;;;11.08;57.26
73558;BME280;61829;53.286;10.434;2023-05-01T05:25:56;101567.97;;;11.31;56.11
73558;BME280;61829;53.286;10.434;2023-05-01T05:28:26;101556.13;;;11.49;55.67
73558;BME280;61829;53.286;10.434;2023-05-01T05:30:53;101554.09;;;11.59;54.38
73558;BME280;61829;53.286;10.434;2023-05-01T05:33:19;101556.78;;;11.59;54.78
73558;BME280;61829;53.286;10.434;2023-05-01T05:35:45;101552.78;;;11.46;55.31
73558;BME280;61829;53.286;10.434;2023-05-01T05:38:11;101545.66;;;11.54;55.67
73558;BME280;61829;53.286;10.434;2023-05-01T05:40:36;101541.09;;;11.54;55.65
73558;BME280;61829;53.286;10.434;2023-05-01T05:43:02;101540.25;;;11.62;55.67
73558;BME280;61829;53.286;10.434;2023-05-01T05:45:32;101540.38;;;11.68;55.63
73558;BME280;61829;53.286;10.434;2023-05-01T05:47:58;101527.63;;;11.94;55.91
73558;BME280;61829;53.286;10.434;2023-05-01T05:50:24;101532.25;;;12.39;54.85
73558;BME280;61829;53.286;10.434;2023-05-01T05:52:50;101531.19;;;12.71;54.41
73558;BME280;61829;53.286;10.434;2023-05-01T05:55:16;101522.28;;;12.86;53.46
73558;BME280;61829;53.286;10.434;2023-05-01T05:57:42;101527.88;;;12.99;53.22
73558;BME280;61829;53.286;10.434;2023-05-01T06:00:08;101529.69;;;13.07;53.54
73558;BME280;61829;53.286;10.434;2023-05-01T06:02:35;101530.34;;;13.09;53.74
73558;BME280;61829;53.286;10.434;2023-05-01T06:05:01;101523.13;;;12.86;54.11
73558;BME280;61829;53.286;10.434;2023-05-01T06:07:27;101520.78;;;12.83;53.98
73558;BME280;61829;53.286;10.434;2023-05-01T06:09:54;101530.16;;;12.72;54.84
73558;BME280;61829;53.286;10.434;2023-05-01T06:12:20;101516.19;;;12.46;54.93
73558;BME280;61829;53.286;10.434;2023-05-01T06:14:46;101519.78;;;12.38;55.57
73558;BME280;61829;53.286;10.434;2023-05-01T06:17:12;101512.41;;;12.55;55.54
73558;BME280;61829;53.286;10.434;2023-05-01T06:19:38;101517.69;;;12.71;54.54
73558;BME280;61829;53.286;10.434;2023-05-01T06:22:04;101521.56;;;13.07;53.93
73558;BME280;61829;53.286;10.434;2023-05-01T06:24:32;101517.44;;;13.34;50.06
73558;BME280;61829;53.286;10.434;2023-05-01T06:26:58;101520.31;;;13.77;48.55
73558;BME280;61829;53.286;10.434;2023-05-01T06:29:24;101511.88;;;13.86;47.19
73558;BME280;61829;53.286;10.434;2023-05-01T06:31:50;101513.22;;;14.12;46.47
73558;BME280;61829;53.286;10.434;2023-05-01T06:34:15;101519.72;;;14.32;45.51
73558;BME280;61829;53.286;10.434;2023-05-01T06:36:41;101506.03;;;14.62;44.97
73558;BME280;61829;53.286;10.434;2023-05-01T06:39:08;101507.66;;;15.06;44.48
73558;BME280;61829;53.286;10.434;2023-05-01T06:41:34;101501.06;;;15.22;42.58
73558;BME280;61829;53.286;10.434;2023-05-01T06:44:03;101499.78;;;15.53;42.74
73558;BME280;61829;53.286;10.434;2023-05-01T06:46:29;101489.53;;;15.89;42.88
73558;BME280;61829;53.286;10.434;2023-05-01T06:48:58;101495.63;;;15.98;41.90
73558;BME280;61829;53.286;10.434;2023-05-01T06:51:24;101505.47;;;16.06;41.16
73558;BME280;61829;53.286;10.434;2023-05-01T06:53:50;101495.06;;;16.36;40.54
73558;BME280;61829;53.286;10.434;2023-05-01T06:56:16;101500.50;;;16.36;39.79
73558;BME280;61829;53.286;10.434;2023-05-01T06:58:43;101498.84;;;16.28;39.94
73558;BME280;61829;53.286;10.434;2023-05-01T07:01:10;101495.53;;;16.59;39.92
73558;BME280;61829;53.286;10.434;2023-05-01T07:03:36;101494.72;;;17.05;38.53
73558;BME280;61829;53.286;10.434;2023-05-01T07:06:02;101489.69;;;17.16;37.36
73558;BME280;61829;53.286;10.434;2023-05-01T07:08:28;101487.13;;;17.27;37.77
73558;BME280;61829;53.286;10.434;2023-05-01T07:10:54;101487.13;;;17.27;36.19
73558;BME280;61829;53.286;10.434;2023-05-01T07:13:20;101484.19;;;17.29;36.99
73558;BME280;61829;53.286;10.434;2023-05-01T07:15:46;101478.72;;;17.36;36.83
73558;BME280;61829;53.286;10.434;2023-05-01T07:18:11;101470.25;;;17.64;36.06
73558;BME280;61829;53.286;10.434;2023-05-01T07:20:38;101466.44;;;17.78;35.67
73558;BME280;61829;53.286;10.434;2023-05-01T07:23:03;101460.09;;;17.78;35.38
73558;BME280;61829;53.286;10.434;2023-05-01T07:25:29;101475.53;;;17.45;35.90
73558;BME280;61829;53.286;10.434;2023-05-01T07:27:55;101469.97;;;17.14;36.54
73558;BME280;61829;53.286;10.434;2023-05-01T07:30:21;101460.97;;;17.13;36.83
73558;BME280;61829;53.286;10.434;2023-05-01T07:32:47;101459.47;;;17.17;36.51
73558;BME280;61829;53.286;10.434;2023-05-01T07:35:13;101455.25;;;17.35;36.65
73558;BME280;61829;53.286;10.434;2023-05-01T07:37:40;101450.16;;;17.51;35.87
73558;BME280;61829;53.286;10.434;2023-05-01T07:40:07;101450.53;;;17.62;36.38
73558;BME280;61829;53.286;10.434;2023-05-01T07:42:32;101442.75;;;17.72;35.98
73558;BME280;61829;53.286;10.434;2023-05-01T07:44:59;101440.41;;;17.82;35.36
73558;BME280;61829;53.286;10.434;2023-05-01T07:47:25;101446.22;;;17.92;35.52
73558;BME280;61829;53.286;10.434;2023-05-01T07:49:52;101431.06;;;18.03;35.48
73558;BME280;61829;53.286;10.434;2023-05-01T07:52:18;101449.16;;;18.23;35.63
73558;BME280;61829;53.286;10.434;2023-05-01T07:54:49;101437.88;;;18.19;34.49
73558;BME280;61829;53.286;10.434;2023-05-01T07:57:15;101442.38;;;18.07;33.00
73558;BME280;61829;53.286;10.434;2023-05-01T07:59:41;101435.59;;;18.16;33.67
73558;BME280;61829;53.286;10.434;2023-05-01T08:02:07;101429.63;;;18.26;34.11
73558;BME280;61829;53.286;10.434;2023-05-01T08:04:33;101425.91;;;18.45;33.56
73558;BME280;61829;53.286;10.434;2023-05-01T08:06:59;101427.81;;;18.45;34.62
73558;BME280;61829;53.286;10.434;2023-05-01T08:09:25;101418.72;;;18.51;33.85
73558;BME280;61829;53.286;10.434;2023-05-01T08:11:51;101416.88;;;18.51;33.33
73558;BME280;61829;53.286;10.434;2023-05-01T08:14:17;101422.69;;;18.55;34.09
73558;BME280;61829;53.286;10.434;2023-05-01T08:16:43;101418.69;;;18.57;32.85
73558;BME280;61829;53.286;10.434;2023-05-01T08:19:10;101406.72;;;18.58;32.91
73558;BME280;61829;53.286;10.434;2023-05-01T08:21:35;101408.50;;;18.46;33.12
73558;BME280;61829;53.286;10.434;2023-05-01T08:24:01;101408.97;;;18.36;33.24
73558;BME280;61829;53.286;10.434;2023-05-01T08:26:29;101412.38;;;18.57;33.88
73558;BME280;61829;53.286;10.434;2023-05-01T08:28:55;101407.25;;;18.67;33.17
73558;BME280;61829;53.286;10.434;2023-05-01T08:31:20;101403.53;;;18.87;33.00
73558;BME280;61829;53.286;10.434;2023-05-01T08:33:47;101414.06;;;19.01;33.36
73558;BME280;61829;53.286;10.434;2023-05-01T08:36:13;101406.72;;;19.20;33.19
73558;BME280;61829;53.286;10.434;2023-05-01T08:38:39;101405.75;;;19.15;31.41
73558;BME280;61829;53.286;10.434;2023-05-01T08:41:05;101397.72;;;18.76;32.80
73558;BME280;61829;53.286;10.434;2023-05-01T08:43:31;101404.34;;;18.62;33.28
73558;BME280;61829;53.286;10.434;2023-05-01T08:46:00;101397.75;;;18.51;31.99
73558;BME280;61829;53.286;10.434;2023-05-01T08:48:27;101391.00;;;18.54;32.29
73558;BME280;61829;53.286;10.434;2023-05-01T08:50:55;101395.50;;;18.67;31.79
73558;BME280;61829;53.286;10.434;2023-05-01T08:53:25;101390.41;;;18.77;31.75
73558;BME280;61829;53.286;10.434;2023-05-01T08:55:52;101379.28;;;18.97;31.76
73558;BME280;61829;53.286;10.434;2023-05-01T08:58:23;101370.16;;;19.03;30.18
73558;BME280;61829;53.286;10.434;2023-05-01T09:00:50;101376.38;;;19.10;31.32
73558;BME280;61829;53.286;10.434;2023-05-01T09:03:16;101368.41;;;19.09;31.38
73558;BME280;61829;53.286;10.434;2023-05-01T09:05:42;101362.09;;;19.26;31.70
73558;BME280;61829;53.286;10.434;2023-05-01T09:08:11;101365.84;;;19.44;31.92
73558;BME280;61829;53.286;10.434;2023-05-01T09:10:41;101352.38;;;19.31;31.08
73558;BME280;61829;53.286;10.434;2023-05-01T09:13:09;101357.72;;;18.89;30.32
73558;BME280;61829;53.286;10.434;2023-05-01T09:15:35;101356.03;;;19.06;32.62
73558;BME280;61829;53.286;10.434;2023-05-01T09:18:01;101354.97;;;19.25;30.86
73558;BME280;61829;53.286;10.434;2023-05-01T09:20:28;101355.34;;;19.11;29.95
73558;BME280;61829;53.286;10.434;2023-05-01T09:22:55;101349.13;;;19.03;30.46
73558;BME280;61829;53.286;10.434;2023-05-01T09:25:24;101348.69;;;19.06;32.10
73558;BME280;61829;53.286;10.434;2023-05-01T09:27:50;101347.69;;;19.01;31.13
73558;BME280;61829;53.286;10.434;2023-05-01T09:33:12;101343.97;;;19.14;32.44
73558;BME280;61829;53.286;10.434;2023-05-01T09:35:54;101336.06;;;19.24;29.51
73558;BME280;61829;53.286;10.434;2023-05-01T09:38:22;101337.28;;;19.28;30.88
73558;BME280;61829;53.286;10.434;2023-05-01T09:40:51;101332.78;;;19.34;31.15
73558;BME280;61829;53.286;10.434;2023-05-01T09:43:27;101325.63;;;19.51;31.11
73558;BME280;61829;53.286;10.434;2023-05-01T09:46:05;101322.47;;;19.66;30.08
73558;BME280;61829;53.286;10.434;2023-05-01T09:48:32;101321.66;;;19.17;29.71
73558;BME280;61829;53.286;10.434;2023-05-01T09:50:58;101321.00;;;19.33;30.88
73558;BME280;61829;53.286;10.434;2023-05-01T09:53:44;101316.03;;;19.42;29.37
73558;BME280;61829;53.286;10.434;2023-05-01T09:56:10;101313.88;;;19.32;30.64
73558;BME280;61829;53.286;10.434;2023-05-01T09:58:36;101310.63;;;19.23;30.00
73558;BME280;61829;53.286;10.434;2023-05-01T10:01:02;101316.59;;;19.50;31.66
73558;BME280;61829;53.286;10.434;2023-05-01T10:03:28;101309.00;;;19.64;29.50
73558;BME280;61829;53.286;10.434;2023-05-01T10:05:54;101315.66;;;19.57;29.78
73558;BME280;61829;53.286;10.434;2023-05-01T10:08:21;101317.66;;;19.61;30.33
73558;BME280;61829;53.286;10.434;2023-05-01T10:11:13;101313.34;;;19.72;29.97
73558;BME280;61829;53.286;10.434;2023-05-01T10:13:40;101307.41;;;19.75;31.87
73558;BME280;61829;53.286;10.434;2023-05-01T10:16:22;101295.91;;;19.85;30.52
73558;BME280;61829;53.286;10.434;2023-05-01T10:18:54;101305.69;;;20.04;29.65
73558;BME280;61829;53.286;10.434;2023-05-01T10:21:20;101293.41;;;20.07;29.71
73558;BME280;61829;53.286;10.434;2023-05-01T10:23:46;101290.91;;;20.05;29.63
73558;BME280;61829;53.286;10.434;2023-05-01T10:26:12;101283.91;;;20.21;29.15
73558;BME280;61829;53.286;10.434;2023-05-01T10:28:39;101282.59;;;20.59;28.66
73558;BME280;61829;53.286;10.434;2023-05-01T10:31:06;101273.41;;;20.77;29.24
73558;BME280;61829;53.286;10.434;2023-05-01T10:33:32;101268.75;;;20.89;29.84
73558;BME280;61829;53.286;10.434;2023-05-01T10:35:58;101262.69;;;21.16;28.55
73558;BME280;61829;53.286;10.434;2023-05-01T10:38:32;101271.72;;;21.16;29.64
73558;BME280;61829;53.286;10.434;2023-05-01T10:44:22;101259.72;;;21.34;28.23
73558;BME280;61829;53.286;10.434;2023-05-01T10:46:48;101257.19;;;21.44;27.63
73558;BME280;61829;53.286;10.434;2023-05-01T10:49:14;101252.56;;;21.62;27.34
73558;BME280;61829;53.286;10.434;2023-05-01T10:54:31;101247.91;;;21.79;28.58
73558;BME280;61829;53.286;10.434;2023-05-01T10:56:59;101247.91;;;21.96;27.44
73558;BME280;61829;53.286;10.434;2023-05-01T11:00:09;101247.00;;;21.90;27.02
73558;BME280;61829;53.286;10.434;2023-05-01T11:02:22;101236.28;;;21.89;27.15
73558;BME280;61829;53.286;10.434;2023-05-01T11:04:49;101237.84;;;21.68;26.96
73558;BME280;61829;53.286;10.434;2023-05-01T11:07:20;101235.47;;;21.71;28.25
73558;BME280;61829;53.286;10.434;2023-05-01T11:12:59;101231.44;;;21.79;29.00
73558;BME280;61829;53.286;10.434;2023-05-01T11:15:01;101226.56;;;21.81;27.28
73558;BME280;61829;53.286;10.434;2023-05-01T11:20:08;101208.16;;;21.82;27.75
73558;BME280;61829;53.286;10.434;2023-05-01T11:22:35;101205.75;;;21.85;28.00
73558;BME280;61829;53.286;10.434;2023-05-01T11:25:02;101210.91;;;21.65;27.96
73558;BME280;61829;53.286;10.434;2023-05-01T11:27:31;101208.94;;;21.60;28.62
73558;BME280;61829;53.286;10.434;2023-05-01T11:30:00;101203.09;;;21.40;27.57
73558;BME280;61829;53.286;10.434;2023-05-01T11:32:27;101188.56;;;21.39;28.09
73558;BME280;61829;53.286;10.434;2023-05-01T11:34:55;101201.44;;;21.39;28.39
73558;BME280;61829;53.286;10.434;2023-05-01T11:40:17;101191.50;;;21.21;27.39
73558;BME280;61829;53.286;10.434;2023-05-01T11:42:44;101187.59;;;21.17;28.59
73558;BME280;61829;53.286;10.434;2023-05-01T11:45:11;101186.16;;;21.14;28.06
73558;BME280;61829;53.286;10.434;2023-05-01T11:47:37;101177.63;;;21.27;30.11
73558;BME280;61829;53.286;10.434;2023-05-01T11:50:06;101176.03;;;21.43;29.16
73558;BME280;61829;53.286;10.434;2023-05-01T11:52:51;101175.63;;;21.51;29.36
73558;BME280;61829;53.286;10.434;2023-05-01T11:55:20;101172.81;;;21.85;28.20
73558;BME280;61829;53.286;10.434;2023-05-01T11:57:52;101167.09;;;21.87;29.58
73558;BME280;61829;53.286;10.434;2023-05-01T12:00:33;101163.34;;;21.93;29.07
73558;BME280;61829;53.286;10.434;2023-05-01T12:03:06;101156.53;;;21.95;27.90
73558;BME280;61829;53.286;10.434;2023-05-01T12:05:33;101160.25;;;22.06;28.81
73558;BME280;61829;53.286;10.434;2023-05-01T12:08:14;101155.78;;;22.00;27.96
73558;BME280;61829;53.286;10.434;2023-05-01T12:10:45;101158.84;;;22.04;27.91
73558;BME280;61829;53.286;10.434;2023-05-01T12:13:17;101156.72;;;21.89;28.10
73558;BME280;61829;53.286;10.434;2023-05-01T12:15:45;101149.22;;;21.84;29.37
73558;BME280;61829;53.286;10.434;2023-05-01T12:18:12;101148.56;;;21.94;28.78
73558;BME280;61829;53.286;10.434;2023-05-01T12:20:41;101147.16;;;22.13;28.24
73558;BME280;61829;53.286;10.434;2023-05-01T12:23:09;101147.56;;;22.44;28.60
73558;BME280;61829;53.286;10.434;2023-05-01T12:25:39;101147.94;;;22.75;28.41
73558;BME280;61829;53.286;10.434;2023-05-01T12:28:15;101140.16;;;22.94;27.35
73558;BME280;61829;53.286;10.434;2023-05-01T12:30:47;101134.41;;;22.95;27.34
73558;BME280;61829;53.286;10.434;2023-05-01T12:33:18;101143.66;;;23.11;27.00
73558;BME280;61829;53.286;10.434;2023-05-01T12:35:47;101131.91;;;23.21;25.66
73558;BME280;61829;53.286;10.434;2023-05-01T12:38:18;101128.03;;;23.17;26.28
73558;BME280;61829;53.286;10.434;2023-05-01T12:40:53;101131.53;;;23.39;26.16
73558;BME280;61829;53.286;10.434;2023-05-01T12:43:37;101132.47;;;23.60;27.97
73558;BME280;61829;53.286;10.434;2023-05-01T12:46:04;101128.75;;;23.71;27.65
73558;BME280;61829;53.286;10.434;2023-05-01T12:48:31;101114.38;;;23.64;26.93
73558;BME280;61829;53.286;10.434;2023-05-01T12:50:59;101114.41;;;23.69;26.42
73558;BME280;61829;53.286;10.434;2023-05-01T12:53:26;101108.44;;;23.83;27.98
73558;BME280;61829;53.286;10.434;2023-05-01T12:55:55;101104.69;;;23.99;26.58
73558;BME280;61829;53.286;10.434;2023-05-01T12:58:21;101096.53;;;24.25;26.58
73558;BME280;61829;53.286;10.434;2023-05-01T13:00:49;101098.19;;;24.20;25.61
73558;BME280;61829;53.286;10.434;2023-05-01T13:03:25;101088.72;;;24.01;27.05
73558;BME280;61829;53.286;10.434;2023-05-01T13:06:02;101078.31;;;24.13;26.64
73558;BME280;61829;53.286;10.434;2023-05-01T13:08:34;101079.94;;;24.04;26.25
73558;BME280;61829;53.286;10.434;2023-05-01T13:11:15;101077.47;;;24.08;26.71
73558;BME280;61829;53.286;10.434;2023-05-01T13:13:45;101078.63;;;24.22;25.65
73558;BME280;61829;53.286;10.434;2023-05-01T13:16:12;101070.03;;;24.08;25.31
73558;BME280;61829;53.286;10.434;2023-05-01T13:18:46;101062.28;;;23.95;26.12
73558;BME280;61829;53.286;10.434;2023-05-01T13:21:18;101069.72;;;24.00;26.74
73558;BME280;61829;53.286;10.434;2023-05-01T13:26:32;101061.56;;;23.67;25.66
73558;BME280;61829;53.286;10.434;2023-05-01T13:29:02;101059.72;;;23.41;27.27